Fes, Morocco
Current Conditions -  °F | °C
As of 6:00 AM on Thursday 27 Nov 2014 (Local Time) from GMFF Reporting Station
Moderate Rain Moderate Rain  
Wind Chill: 12°   Ceiling: 3000
Heat Index: 12°   Visibility: 5mi
Dew Point:   Wind: 17mph
Humidity: 77%   Direction: 210°SSW
Pressure: 29.74"   Gusts: NA
Location:  34.05°N, 5°W
Report Text: GMFF 270500Z 21015KT 8000 RA BKN030 12/08 Q1007 NOSIG
Loading
Personal Weather Stations






























Interactive Weather Map New forecast layout! Learn more

10-Day Weather Forecast

Advertisements
Track Severe Weather on mobile